Mc Donald, Pennsylvania
Current Conditions -  °F | °C
As of 3:51 AM on Monday 24 Nov 2014 (Local Time) from KPIT Reporting Station
Overcast Overcast  
Wind Chill: 16°   Ceiling: 3800
Heat Index: 16°   Visibility: 10mi
Dew Point: 11°   Wind: 15mph
Humidity: 75%   Direction: 190°S
Pressure: 29.38"   Gusts: 21mph
Location:  40.3662°N, 80.2739°W
Report Text: KPIT 240851Z 19013G18KT 10SM BKN038 OVC046 16/11 A2938 RMK AO2 SLP953 60000 T01560111 55017
Loading
Personal Weather Stations






























Interactive Weather Map New forecast layout! Learn more

10-Day Weather Forecast

Advertisements
Track Severe Weather on mobile